createdAt,value
2022-10-18T00:00:08.997Z,16.40
2022-10-18T00:02:36.047Z,16.40
2022-10-18T00:05:03.667Z,16.40
2022-10-18T00:07:30.984Z,16.30
2022-10-18T00:09:58.415Z,16.20
2022-10-18T00:12:25.540Z,16.20
2022-10-18T00:14:52.690Z,16.20
2022-10-18T00:17:20.082Z,16.10
2022-10-18T00:19:47.036Z,16.10
2022-10-18T00:22:14.129Z,16.00
2022-10-18T00:24:41.289Z,16.00
2022-10-18T00:27:08.426Z,15.90
2022-10-18T00:29:35.595Z,15.90
2022-10-18T00:32:02.756Z,15.80
2022-10-18T00:34:29.936Z,15.80
2022-10-18T00:36:57.008Z,15.80
2022-10-18T00:39:23.890Z,15.70
2022-10-18T00:41:51.666Z,15.70
2022-10-18T00:44:18.757Z,15.70
2022-10-18T00:46:47.893Z,15.70
2022-10-18T00:49:19.305Z,15.70
2022-10-18T00:52:00.995Z,15.60
2022-10-18T00:54:31.443Z,15.60
2022-10-18T00:56:58.959Z,15.70
2022-10-18T00:59:27.566Z,15.60
2022-10-18T01:01:54.729Z,15.60
2022-10-18T01:04:22.781Z,15.60
2022-10-18T01:06:52.904Z,15.50
2022-10-18T01:09:35.872Z,15.60
2022-10-18T01:12:17.754Z,15.60
2022-10-18T01:15:02.049Z,15.60
2022-10-18T01:17:50.210Z,15.60
2022-10-18T01:20:48.339Z,15.50
2022-10-18T01:23:59.322Z,15.50
2022-10-18T01:27:03.962Z,15.50
2022-10-18T01:29:58.478Z,15.50
2022-10-18T01:32:31.184Z,15.50
2022-10-18T01:35:03.256Z,15.50
2022-10-18T01:37:34.499Z,15.50
2022-10-18T01:40:06.603Z,15.40
2022-10-18T01:42:34.273Z,15.50
2022-10-18T01:45:03.002Z,15.50
2022-10-18T01:47:31.668Z,15.50
2022-10-18T01:50:02.404Z,15.50
2022-10-18T01:52:29.496Z,15.50
2022-10-18T01:54:57.682Z,15.40
2022-10-18T01:57:33.865Z,15.40
2022-10-18T02:00:06.817Z,15.50
2022-10-18T02:03:06.342Z,15.50
2022-10-18T02:05:56.788Z,15.50
2022-10-18T02:09:06.510Z,15.50
2022-10-18T02:11:36.934Z,15.50
2022-10-18T02:14:11.598Z,15.40
2022-10-18T02:16:47.606Z,15.40
2022-10-18T02:19:37.996Z,15.40
2022-10-18T02:22:06.734Z,15.40
2022-10-18T02:24:44.221Z,15.40
2022-10-18T02:27:12.490Z,15.40
2022-10-18T02:29:40.978Z,15.30
2022-10-18T02:32:08.120Z,15.30
2022-10-18T02:35:04.392Z,15.30
2022-10-18T02:37:36.483Z,15.40
2022-10-18T02:40:05.771Z,15.30
2022-10-18T02:42:45.675Z,15.40
2022-10-18T02:45:14.013Z,15.30
2022-10-18T02:47:41.249Z,15.30
2022-10-18T02:50:08.822Z,15.30
2022-10-18T02:52:35.676Z,15.30
2022-10-18T02:55:02.917Z,15.20
2022-10-18T02:57:30.926Z,15.20
2022-10-18T02:59:58.338Z,15.20
2022-10-18T03:02:25.918Z,15.20
2022-10-18T03:04:52.998Z,15.10
2022-10-18T03:07:20.100Z,15.10
2022-10-18T03:09:47.260Z,15.10
2022-10-18T03:12:14.394Z,15.00
2022-10-18T03:14:42.443Z,15.00
2022-10-18T03:17:09.615Z,15.00
2022-10-18T03:19:38.602Z,14.90
2022-10-18T03:22:05.917Z,14.90
2022-10-18T03:24:33.083Z,14.90
2022-10-18T03:27:00.124Z,14.80
2022-10-18T03:29:26.955Z,14.80
2022-10-18T03:31:55.112Z,14.80
2022-10-18T03:34:22.166Z,14.70
2022-10-18T03:36:49.028Z,14.60
2022-10-18T03:39:15.922Z,14.60
2022-10-18T03:41:43.086Z,14.60
2022-10-18T03:44:10.235Z,14.50
2022-10-18T03:46:37.345Z,14.50
2022-10-18T03:49:04.589Z,14.40
2022-10-18T03:51:31.703Z,14.50
2022-10-18T03:53:58.805Z,14.40
2022-10-18T03:56:25.949Z,14.40
2022-10-18T03:58:53.094Z,14.40
2022-10-18T04:01:19.961Z,14.40
2022-10-18T04:03:47.101Z,14.40
2022-10-18T04:06:14.418Z,14.40
2022-10-18T04:08:41.386Z,14.40
2022-10-18T04:11:09.877Z,14.40
2022-10-18T04:13:37.283Z,14.40
2022-10-18T04:16:04.470Z,14.40
2022-10-18T04:18:31.578Z,14.40
2022-10-18T04:20:58.953Z,14.40
2022-10-18T04:23:25.836Z,14.40
2022-10-18T04:25:52.772Z,14.40
2022-10-18T04:28:19.851Z,14.30
2022-10-18T04:30:53.738Z,14.30
2022-10-18T04:33:20.596Z,14.30
2022-10-18T04:35:50.815Z,14.30
2022-10-18T04:38:17.712Z,14.20
2022-10-18T04:40:44.790Z,14.20
2022-10-18T04:43:13.222Z,14.20
2022-10-18T04:45:40.328Z,14.20
2022-10-18T04:48:07.337Z,14.20
2022-10-18T04:50:34.175Z,14.10
2022-10-18T04:53:01.005Z,14.10
2022-10-18T04:55:28.018Z,14.10
2022-10-18T04:57:54.912Z,14.20
2022-10-18T05:00:22.195Z,14.10
2022-10-18T05:02:49.256Z,14.10
2022-10-18T05:05:16.457Z,14.10
2022-10-18T05:07:43.471Z,14.10
2022-10-18T05:10:10.482Z,14.10
2022-10-18T05:12:37.461Z,14.00
2022-10-18T05:15:04.919Z,14.00
2022-10-18T05:17:32.031Z,14.00
2022-10-18T05:19:58.960Z,14.00
2022-10-18T05:22:26.054Z,14.00
2022-10-18T05:24:52.974Z,14.00
2022-10-18T05:27:20.328Z,13.90
2022-10-18T05:29:47.270Z,14.00
2022-10-18T05:32:14.467Z,14.00
2022-10-18T05:34:42.016Z,14.00
2022-10-18T05:37:08.981Z,14.00
2022-10-18T05:39:37.723Z,14.00
2022-10-18T05:42:06.302Z,14.00
2022-10-18T05:44:33.424Z,14.00
2022-10-18T05:47:00.566Z,14.00
2022-10-18T05:49:27.734Z,14.00
2022-10-18T05:51:54.559Z,14.00
2022-10-18T05:54:21.783Z,14.10
2022-10-18T05:56:48.828Z,14.10
2022-10-18T05:59:15.717Z,14.10
2022-10-18T06:01:43.445Z,14.20
2022-10-18T06:04:10.483Z,14.20
2022-10-18T06:06:38.446Z,14.30
2022-10-18T06:09:07.159Z,14.30
2022-10-18T06:11:35.228Z,14.40
2022-10-18T06:14:02.387Z,14.40
2022-10-18T06:16:32.425Z,14.50
2022-10-18T06:19:00.290Z,14.60
2022-10-18T06:21:27.761Z,14.70
2022-10-18T06:23:58.538Z,14.70
2022-10-18T06:26:27.109Z,14.70
2022-10-18T06:28:54.189Z,14.80
2022-10-18T06:31:21.438Z,14.80
2022-10-18T06:33:49.304Z,14.90
2022-10-18T06:36:18.777Z,14.90
2022-10-18T06:38:46.029Z,14.90
2022-10-18T06:41:13.309Z,15.00
2022-10-18T06:43:40.440Z,15.10
2022-10-18T06:46:08.433Z,15.10
2022-10-18T06:48:36.877Z,15.20
2022-10-18T06:51:05.952Z,15.20
2022-10-18T06:53:40.762Z,15.20
2022-10-18T06:56:12.878Z,15.30
2022-10-18T06:58:40.853Z,15.30
2022-10-18T07:01:13.648Z,15.40
2022-10-18T07:03:40.494Z,15.40
2022-10-18T07:06:09.774Z,15.50
2022-10-18T07:08:36.986Z,15.60
2022-10-18T07:11:04.670Z,15.60
2022-10-18T07:13:33.476Z,15.60
2022-10-18T07:16:07.064Z,15.70
2022-10-18T07:18:39.630Z,15.70
2022-10-18T07:21:09.730Z,15.70
2022-10-18T07:23:39.180Z,15.80
2022-10-18T07:26:27.376Z,15.80
2022-10-18T07:29:01.535Z,15.90
2022-10-18T07:31:29.431Z,15.90
2022-10-18T07:33:56.493Z,16.00
2022-10-18T07:36:24.597Z,16.00
2022-10-18T07:38:55.048Z,16.20
2022-10-18T07:41:22.279Z,16.30
2022-10-18T07:43:51.609Z,16.40
2022-10-18T07:46:20.342Z,16.40
2022-10-18T07:48:47.736Z,16.50
2022-10-18T07:51:15.178Z,16.50
2022-10-18T07:53:42.107Z,16.60
2022-10-18T07:56:15.991Z,16.60
2022-10-18T07:58:43.748Z,16.70
2022-10-18T08:01:11.095Z,16.70
2022-10-18T08:03:38.946Z,16.70
2022-10-18T08:06:09.254Z,16.80
2022-10-18T08:08:38.595Z,16.80
2022-10-18T08:11:17.298Z,16.80
2022-10-18T08:13:44.510Z,16.90
2022-10-18T08:16:15.216Z,16.80
2022-10-18T08:18:42.428Z,16.90
2022-10-18T08:21:11.577Z,16.90
2022-10-18T08:23:40.205Z,16.90
2022-10-18T08:26:10.063Z,17.00
2022-10-18T08:28:37.276Z,17.00
2022-10-18T08:31:06.430Z,17.10
2022-10-18T08:33:34.132Z,17.10
2022-10-18T08:36:02.624Z,17.10
2022-10-18T08:38:31.390Z,17.20
2022-10-18T08:41:35.244Z,17.30
2022-10-18T08:44:21.085Z,17.40
2022-10-18T08:47:19.367Z,17.60
2022-10-18T08:49:51.589Z,17.70
2022-10-18T08:52:27.448Z,17.80
2022-10-18T08:55:03.810Z,17.80
2022-10-18T08:57:32.092Z,17.90
2022-10-18T08:59:59.315Z,17.90
2022-10-18T09:02:36.296Z,18.00
2022-10-18T09:05:22.242Z,18.00
2022-10-18T09:07:55.830Z,18.00
2022-10-18T09:10:31.707Z,17.90
2022-10-18T09:13:19.093Z,18.00
2022-10-18T09:16:05.148Z,18.10
2022-10-18T09:18:50.899Z,18.10
2022-10-18T09:21:54.003Z,18.20
2022-10-18T09:24:46.082Z,18.20
2022-10-18T09:27:19.142Z,18.30
2022-10-18T09:29:52.050Z,18.40
2022-10-18T09:32:21.711Z,18.40
2022-10-18T09:35:11.975Z,18.40
2022-10-18T09:37:40.035Z,18.30
2022-10-18T09:40:24.683Z,18.20
2022-10-18T09:42:54.892Z,18.20
2022-10-18T09:45:37.944Z,18.20
2022-10-18T09:48:34.317Z,18.10
2022-10-18T09:51:27.064Z,18.10
2022-10-18T09:54:09.237Z,18.20
2022-10-18T09:57:05.386Z,18.40
2022-10-18T09:59:42.719Z,18.50
2022-10-18T10:02:22.289Z,18.60
2022-10-18T10:04:50.769Z,18.70
2022-10-18T10:07:28.701Z,18.80
2022-10-18T10:09:59.554Z,18.90
2022-10-18T10:12:30.615Z,19.00
2022-10-18T10:15:20.732Z,19.10
2022-10-18T10:18:00.056Z,19.20
2022-10-18T10:20:42.317Z,19.40
2022-10-18T10:23:32.080Z,19.60
2022-10-18T10:26:20.427Z,19.80
2022-10-18T10:28:49.154Z,19.90
2022-10-18T10:31:19.322Z,20.10
2022-10-18T10:33:47.651Z,20.20
2022-10-18T10:36:19.882Z,20.30
2022-10-18T10:39:01.867Z,20.40
2022-10-18T10:41:30.107Z,20.50
2022-10-18T10:43:57.544Z,20.60
2022-10-18T10:46:35.504Z,20.60
2022-10-18T10:49:35.097Z,20.60
2022-10-18T10:52:09.228Z,20.50
2022-10-18T10:54:51.155Z,20.40
2022-10-18T10:57:21.387Z,20.30
2022-10-18T10:59:53.724Z,20.30
2022-10-18T11:02:21.868Z,20.30
2022-10-18T11:04:54.775Z,20.10
2022-10-18T11:07:52.540Z,20.00
2022-10-18T11:10:24.688Z,19.90
2022-10-18T11:13:13.072Z,19.90
2022-10-18T11:15:45.626Z,19.90
2022-10-18T11:18:28.106Z,19.80
2022-10-18T11:21:18.877Z,19.90
2022-10-18T11:23:46.401Z,19.90
2022-10-18T11:26:13.195Z,19.90
2022-10-18T11:29:25.848Z,19.80
2022-10-18T11:32:13.717Z,19.80
2022-10-18T11:35:04.635Z,19.70
2022-10-18T11:37:52.490Z,19.80
2022-10-18T11:40:27.943Z,20.00
2022-10-18T11:43:15.018Z,20.30
2022-10-18T11:45:56.390Z,20.70
2022-10-18T11:48:23.158Z,21.00
2022-10-18T11:51:23.757Z,21.40
2022-10-18T11:54:12.285Z,21.60
2022-10-18T11:57:05.121Z,21.70
2022-10-18T11:59:46.266Z,21.60
2022-10-18T14:28:31.540Z,20.20
2022-10-18T14:31:18.353Z,20.20
2022-10-18T14:33:58.296Z,20.10
2022-10-18T14:36:29.310Z,20.00
2022-10-18T14:39:01.080Z,19.90
2022-10-18T14:41:29.062Z,19.80
2022-10-18T14:44:14.630Z,19.70
2022-10-18T14:46:45.969Z,19.70
2022-10-18T14:49:14.635Z,19.60
2022-10-18T14:51:44.006Z,19.60
2022-10-18T14:54:30.754Z,19.50
2022-10-18T14:57:00.618Z,19.50
2022-10-18T14:59:30.344Z,19.50
2022-10-18T15:02:12.432Z,19.50
2022-10-18T15:04:39.208Z,19.50
2022-10-18T15:07:12.989Z,19.50
2022-10-18T15:09:40.183Z,19.50
2022-10-18T15:12:08.042Z,19.40
2022-10-18T15:14:35.649Z,19.30
2022-10-18T15:17:08.303Z,19.30
2022-10-18T15:19:39.362Z,19.20
2022-10-18T15:25:15.335Z,19.10
2022-10-18T15:27:45.605Z,18.90
2022-10-18T15:30:27.556Z,18.70
2022-10-18T15:33:00.535Z,18.50
2022-10-18T15:35:38.511Z,18.40
2022-10-18T15:38:24.280Z,18.20
2022-10-18T15:40:51.477Z,17.90
2022-10-18T15:43:24.369Z,17.70
2022-10-18T15:46:06.397Z,17.40
2022-10-18T15:48:39.511Z,17.20
2022-10-18T15:51:33.986Z,16.90
2022-10-18T15:54:00.743Z,16.60
2022-10-18T15:56:27.850Z,16.30
2022-10-18T15:58:59.267Z,16.10
2022-10-18T16:01:36.350Z,15.80
2022-10-18T16:04:26.906Z,15.60
2022-10-18T16:06:55.637Z,15.30
2022-10-18T16:09:25.249Z,15.20
2022-10-18T16:11:56.596Z,15.00
2022-10-18T16:14:24.379Z,14.90
2022-10-18T16:16:54.572Z,14.90
2022-10-18T16:19:22.729Z,14.80
2022-10-18T16:21:50.504Z,14.70
2022-10-18T16:24:17.792Z,14.70
2022-10-18T16:26:45.015Z,14.70
2022-10-18T16:29:16.623Z,14.70
2022-10-18T16:31:43.881Z,14.70
2022-10-18T16:34:11.314Z,14.60
2022-10-18T16:36:38.210Z,14.60
2022-10-18T16:39:07.747Z,14.60
2022-10-18T16:41:34.572Z,14.60
2022-10-18T16:44:01.301Z,14.60
2022-10-18T16:46:30.785Z,14.60
2022-10-18T16:48:58.309Z,14.60
2022-10-18T16:51:25.829Z,14.60
2022-10-18T16:53:53.698Z,14.60
2022-10-18T16:56:27.129Z,14.60
2022-10-18T16:58:54.361Z,14.60
2022-10-18T17:01:22.736Z,14.60
2022-10-18T17:03:52.163Z,14.60
2022-10-18T17:06:22.858Z,14.60
2022-10-18T17:08:49.998Z,14.60
2022-10-18T17:11:17.608Z,14.50
2022-10-18T17:13:44.760Z,14.50
2022-10-18T17:16:20.770Z,14.50
2022-10-18T17:18:47.867Z,14.50
2022-10-18T17:21:14.678Z,14.40
2022-10-18T17:23:41.461Z,14.40
2022-10-18T17:26:28.346Z,14.40
2022-10-18T17:29:08.305Z,14.30
2022-10-18T17:31:35.774Z,14.20
2022-10-18T17:34:03.196Z,14.10
2022-10-18T17:36:31.716Z,14.10
2022-10-18T17:38:58.818Z,14.10
2022-10-18T17:41:26.296Z,14.00
2022-10-18T17:43:53.218Z,14.00
2022-10-18T17:46:20.624Z,13.90
2022-10-18T17:48:47.454Z,13.90
2022-10-18T17:51:17.146Z,13.80
2022-10-18T17:53:44.838Z,13.90
2022-10-18T17:56:13.051Z,13.90
2022-10-18T17:58:40.282Z,13.80
2022-10-18T18:01:23.301Z,13.80
2022-10-18T18:03:50.789Z,13.80
2022-10-18T18:06:23.782Z,13.80
2022-10-18T18:08:50.882Z,13.80
2022-10-18T18:11:18.641Z,13.80
2022-10-18T18:13:45.574Z,13.80
2022-10-18T18:16:23.258Z,13.80
2022-10-18T18:18:52.799Z,13.70
2022-10-18T18:21:20.653Z,13.80
2022-10-18T18:23:49.708Z,13.70
2022-10-18T18:26:18.807Z,13.70
2022-10-18T18:28:46.347Z,13.70
2022-10-18T18:31:23.452Z,13.80
2022-10-18T18:33:53.386Z,13.80
2022-10-18T18:36:22.403Z,13.80
2022-10-18T18:38:55.526Z,13.80
2022-10-18T18:41:26.105Z,13.80
2022-10-18T18:43:56.469Z,13.80
2022-10-18T18:46:24.913Z,13.80
2022-10-18T18:48:51.854Z,13.80
2022-10-18T18:51:20.982Z,13.70
2022-10-18T18:53:48.578Z,13.70
2022-10-18T18:56:18.666Z,13.70
2022-10-18T18:58:46.930Z,13.70
2022-10-18T19:01:19.512Z,13.60
2022-10-18T19:03:48.790Z,13.60
2022-10-18T19:06:24.407Z,13.60
2022-10-18T19:08:54.109Z,13.50
2022-10-18T19:11:22.522Z,13.50
2022-10-18T19:13:50.121Z,13.50
2022-10-18T19:16:24.270Z,13.50
2022-10-18T19:19:01.008Z,13.50
2022-10-18T19:21:52.470Z,13.50
2022-10-18T19:24:20.855Z,13.40
2022-10-18T19:26:52.864Z,13.50
2022-10-18T19:29:22.386Z,13.50
2022-10-18T19:31:51.417Z,13.50
2022-10-18T19:34:22.016Z,13.50
2022-10-18T19:36:49.517Z,13.50
2022-10-18T19:39:18.286Z,13.60
2022-10-18T19:41:50.568Z,13.60
2022-10-18T19:44:19.255Z,13.60
2022-10-18T19:46:46.423Z,13.60
2022-10-18T19:49:13.659Z,13.70
2022-10-18T19:51:41.209Z,13.70
2022-10-18T19:54:08.155Z,13.70
2022-10-18T19:56:34.958Z,13.70
2022-10-18T19:59:01.833Z,13.70
2022-10-18T20:01:29.485Z,13.70
2022-10-18T20:03:56.986Z,13.70
2022-10-18T20:06:24.271Z,13.70
2022-10-18T20:08:51.854Z,13.70
2022-10-18T20:11:21.610Z,13.70
2022-10-18T20:13:49.421Z,13.70
2022-10-18T20:16:25.489Z,13.70
2022-10-18T20:19:02.839Z,13.70
2022-10-18T20:21:32.543Z,13.70
2022-10-18T20:23:59.273Z,13.70
2022-10-18T20:26:26.200Z,13.70
2022-10-18T20:28:58.800Z,13.70
2022-10-18T20:31:31.357Z,13.70
2022-10-18T20:34:00.908Z,13.70
2022-10-18T20:36:29.179Z,13.60
2022-10-18T20:38:56.294Z,13.70
2022-10-18T20:41:35.144Z,13.60
2022-10-18T20:44:04.677Z,13.60
2022-10-18T20:46:34.657Z,13.60
2022-10-18T20:49:02.281Z,13.60
2022-10-18T20:51:29.017Z,13.60
2022-10-18T20:53:56.319Z,13.60
2022-10-18T20:56:26.480Z,13.60
2022-10-18T20:58:56.658Z,13.60
2022-10-18T21:01:29.273Z,13.70
2022-10-18T21:03:58.196Z,13.70
2022-10-18T21:06:31.022Z,13.60
2022-10-18T21:09:04.597Z,13.70
2022-10-18T21:11:35.019Z,13.70
2022-10-18T21:14:02.813Z,13.70
2022-10-18T21:16:31.763Z,13.70
2022-10-18T21:19:08.662Z,13.70
2022-10-18T21:21:35.894Z,13.70
2022-10-18T21:24:06.868Z,13.60
2022-10-18T21:26:35.110Z,13.70
2022-10-18T21:29:02.034Z,13.70
2022-10-18T21:31:34.951Z,13.60
2022-10-18T21:34:04.833Z,13.60
2022-10-18T21:36:34.784Z,13.60
2022-10-18T21:39:03.402Z,13.60
2022-10-18T21:41:31.858Z,13.60
2022-10-18T21:43:58.971Z,13.60
2022-10-18T21:46:27.245Z,13.60
2022-10-18T21:48:55.949Z,13.60
2022-10-18T21:51:26.122Z,13.60
2022-10-18T21:53:55.498Z,13.60
2022-10-18T21:56:24.815Z,13.60
2022-10-18T21:58:51.691Z,13.60
2022-10-18T22:01:21.427Z,13.60
2022-10-18T22:03:50.682Z,13.60
2022-10-18T22:06:18.003Z,13.60
2022-10-18T22:08:50.449Z,13.60
2022-10-18T22:11:18.932Z,13.60
2022-10-18T22:13:46.406Z,13.60
2022-10-18T22:16:15.934Z,13.70
2022-10-18T22:18:44.312Z,13.70
2022-10-18T22:21:12.998Z,13.60
2022-10-18T22:23:51.196Z,13.60
2022-10-18T22:26:33.663Z,13.60
2022-10-18T22:29:07.049Z,13.60
2022-10-18T22:31:36.618Z,13.60
2022-10-18T22:34:07.216Z,13.60
2022-10-18T22:36:34.986Z,13.60
2022-10-18T22:39:02.101Z,13.60
2022-10-18T22:41:28.879Z,13.60
2022-10-18T22:43:57.404Z,13.60
2022-10-18T22:46:26.772Z,13.50
2022-10-18T22:48:53.786Z,13.50
2022-10-18T22:51:21.887Z,13.50
2022-10-18T22:53:49.415Z,13.50
2022-10-18T22:56:18.452Z,13.50
2022-10-18T22:58:45.654Z,13.40
2022-10-18T23:01:15.359Z,13.40
2022-10-18T23:03:42.575Z,13.30
2022-10-18T23:06:20.584Z,13.30
2022-10-18T23:08:48.121Z,13.20
2022-10-18T23:11:14.960Z,13.10
2022-10-18T23:13:42.159Z,13.10
2022-10-18T23:16:09.086Z,13.10
2022-10-18T23:18:35.955Z,13.10
2022-10-18T23:21:08.987Z,13.00
2022-10-18T23:23:39.555Z,13.00
2022-10-18T23:26:14.737Z,13.00
2022-10-18T23:28:44.719Z,13.00
2022-10-18T23:31:14.698Z,13.00
2022-10-18T23:33:42.136Z,13.00
2022-10-18T23:36:09.502Z,13.00
2022-10-18T23:38:37.783Z,12.90
2022-10-18T23:41:08.894Z,12.90
2022-10-18T23:43:36.295Z,12.90
2022-10-18T23:46:03.273Z,12.70
2022-10-18T23:48:30.190Z,12.70
2022-10-18T23:50:57.205Z,12.60
2022-10-18T23:53:24.230Z,12.50
2022-10-18T23:56:01.416Z,12.50
2022-10-18T23:58:30.374Z,12.40
